createdAt,value
2018-03-11T00:00:31.459Z,65.50
2018-03-11T00:03:00.551Z,65.60
2018-03-11T00:05:28.869Z,65.50
2018-03-11T00:07:57.300Z,65.70
2018-03-11T00:10:25.648Z,65.80
2018-03-11T00:12:54.284Z,65.70
2018-03-11T00:15:22.677Z,66.10
2018-03-11T00:17:51.038Z,66.20
2018-03-11T00:20:19.354Z,66.50
2018-03-11T00:22:47.667Z,66.60
2018-03-11T00:25:15.970Z,66.70
2018-03-11T00:27:45.058Z,66.70
2018-03-11T00:30:14.251Z,66.50
2018-03-11T00:32:42.575Z,66.50
2018-03-11T00:35:10.854Z,66.50
2018-03-11T00:37:39.159Z,66.50
2018-03-11T00:40:07.653Z,66.40
2018-03-11T00:42:36.631Z,66.30
2018-03-11T00:45:05.015Z,66.00
2018-03-11T00:47:33.328Z,65.90
2018-03-11T00:50:01.618Z,66.00
2018-03-11T00:52:30.050Z,66.40
2018-03-11T00:54:59.835Z,66.50
2018-03-11T00:57:28.173Z,66.50
2018-03-11T00:59:56.613Z,66.70
2018-03-11T01:02:25.698Z,66.50
2018-03-11T01:04:54.484Z,66.50
2018-03-11T01:07:22.933Z,66.50
2018-03-11T01:09:51.243Z,66.60
2018-03-11T01:12:19.585Z,66.60
2018-03-11T01:14:47.895Z,66.70
2018-03-11T01:17:16.409Z,66.60
2018-03-11T01:19:45.494Z,66.60
2018-03-11T01:22:14.753Z,66.50
2018-03-11T01:24:43.072Z,66.50
2018-03-11T01:27:12.227Z,66.70
2018-03-11T01:29:40.671Z,66.70
2018-03-11T01:32:08.992Z,66.70
2018-03-11T01:34:37.289Z,66.60
2018-03-11T01:37:05.600Z,66.60
2018-03-11T01:39:35.619Z,66.60
2018-03-11T01:42:04.083Z,66.30
2018-03-11T01:44:33.385Z,66.50
2018-03-11T01:47:02.526Z,66.60
2018-03-11T01:49:30.843Z,66.50
2018-03-11T01:51:59.106Z,66.40
2018-03-11T01:54:27.430Z,67.10
2018-03-11T01:56:55.848Z,66.60
2018-03-11T01:59:24.160Z,66.80
2018-03-11T02:01:53.215Z,66.70
2018-03-11T02:04:21.531Z,66.70
2018-03-11T02:06:50.594Z,66.90
2018-03-11T02:09:18.894Z,66.90
2018-03-11T02:11:49.045Z,67.20
2018-03-11T02:14:17.407Z,66.70
2018-03-11T02:16:46.487Z,66.80
2018-03-11T02:19:15.598Z,67.20
2018-03-11T02:21:44.666Z,66.90
2018-03-11T02:24:13.086Z,66.80
2018-03-11T02:26:41.558Z,66.60
2018-03-11T02:29:09.854Z,66.50
2018-03-11T02:31:38.287Z,66.60
2018-03-11T02:34:06.961Z,66.60
2018-03-11T02:36:36.094Z,66.80
2018-03-11T02:39:04.471Z,66.80
2018-03-11T02:41:33.716Z,66.70
2018-03-11T02:44:03.110Z,66.80
2018-03-11T02:46:31.480Z,66.80
2018-03-11T02:48:59.974Z,66.70
2018-03-11T02:51:28.556Z,66.60
2018-03-11T02:53:56.890Z,66.40
2018-03-11T02:56:25.989Z,66.60
2018-03-11T02:58:54.294Z,66.60
2018-03-11T03:01:22.606Z,66.10
2018-03-11T03:03:50.899Z,66.10
2018-03-11T03:06:19.976Z,65.70
2018-03-11T03:08:48.268Z,65.60
2018-03-11T03:11:16.590Z,65.50
2018-03-11T03:13:45.835Z,64.90
2018-03-11T03:16:16.764Z,64.60
2018-03-11T03:18:45.072Z,64.60
2018-03-11T03:21:14.179Z,64.90
2018-03-11T03:23:42.526Z,64.80
2018-03-11T03:26:10.861Z,65.90
2018-03-11T03:28:39.288Z,65.80
2018-03-11T03:31:07.549Z,66.40
2018-03-11T03:33:36.064Z,66.40
2018-03-11T03:36:05.138Z,66.40
2018-03-11T03:38:33.410Z,66.40
2018-03-11T03:41:01.790Z,66.20
2018-03-11T03:43:30.203Z,66.40
2018-03-11T03:45:58.709Z,65.60
2018-03-11T03:48:27.254Z,64.70
2018-03-11T03:50:56.324Z,63.70
2018-03-11T03:53:24.625Z,63.70
2018-03-11T03:55:52.910Z,64.50
2018-03-11T03:58:21.304Z,64.60
2018-03-11T04:00:49.829Z,64.80
2018-03-11T04:03:18.178Z,64.90
2018-03-11T04:05:46.595Z,64.00
2018-03-11T04:08:14.990Z,63.10
2018-03-11T04:10:44.152Z,64.60
2018-03-11T04:13:12.511Z,64.60
2018-03-11T04:15:41.848Z,67.80
2018-03-11T04:18:10.121Z,67.80
2018-03-11T04:20:38.470Z,68.00
2018-03-11T04:23:06.904Z,67.00
2018-03-11T04:25:36.056Z,67.30
2018-03-11T04:28:04.349Z,67.40
2018-03-11T04:30:33.684Z,67.20
2018-03-11T04:33:02.026Z,67.20
2018-03-11T04:35:30.620Z,67.40
2018-03-11T04:37:58.904Z,65.10
2018-03-11T04:40:28.704Z,64.70
2018-03-11T04:42:57.040Z,64.70
2018-03-11T04:45:25.415Z,66.90
2018-03-11T04:47:54.531Z,68.80
2018-03-11T04:50:22.821Z,69.70
2018-03-11T04:52:51.242Z,69.20
2018-03-11T04:55:19.555Z,70.70
2018-03-11T04:57:47.898Z,70.50
2018-03-11T05:00:16.235Z,71.00
2018-03-11T05:02:44.540Z,70.40
2018-03-11T05:05:13.650Z,68.80
2018-03-11T05:07:42.112Z,68.80
2018-03-11T05:10:11.284Z,68.60
2018-03-11T05:12:39.650Z,68.60
2018-03-11T05:15:08.243Z,68.70
2018-03-11T05:17:37.337Z,68.80
2018-03-11T05:20:05.655Z,70.00
2018-03-11T05:22:34.006Z,69.90
2018-03-11T05:25:02.284Z,69.80
2018-03-11T05:27:30.685Z,70.00
2018-03-11T05:29:59.002Z,70.00
2018-03-11T05:32:27.524Z,69.90
2018-03-11T05:34:56.607Z,70.10
2018-03-11T05:37:24.919Z,69.90
2018-03-11T05:39:53.250Z,69.90
2018-03-11T05:42:21.838Z,71.00
2018-03-11T05:44:50.215Z,70.70
2018-03-11T05:47:18.940Z,70.90
2018-03-11T05:49:48.773Z,70.70
2018-03-11T05:52:17.212Z,70.90
2018-03-11T05:54:45.641Z,71.10
2018-03-11T05:57:14.227Z,71.40
2018-03-11T05:59:42.589Z,71.40
2018-03-11T06:02:10.910Z,71.60
2018-03-11T06:04:39.194Z,71.30
2018-03-11T06:07:07.480Z,71.10
2018-03-11T06:09:35.881Z,72.20
2018-03-11T06:12:04.234Z,71.50
2018-03-11T06:14:32.606Z,71.40
2018-03-11T06:17:02.032Z,71.30
2018-03-11T06:19:30.507Z,71.50
2018-03-11T06:21:59.711Z,70.80
2018-03-11T06:24:28.852Z,70.70
2018-03-11T06:26:57.165Z,70.60
2018-03-11T06:29:26.321Z,71.20
2018-03-11T06:31:54.656Z,70.70
2018-03-11T06:34:22.976Z,70.70
2018-03-11T06:36:51.281Z,70.60
2018-03-11T06:39:19.801Z,70.50
2018-03-11T06:41:48.065Z,70.40
2018-03-11T06:44:17.130Z,70.80
2018-03-11T06:46:45.566Z,70.80
2018-03-11T06:49:13.906Z,70.90
2018-03-11T06:51:43.143Z,71.00
2018-03-11T06:54:11.464Z,70.90
2018-03-11T06:56:39.834Z,70.80
2018-03-11T06:59:08.190Z,70.40
2018-03-11T07:01:36.470Z,70.30
2018-03-11T07:04:04.830Z,70.10
2018-03-11T07:06:33.212Z,70.20
2018-03-11T07:09:01.676Z,70.00
2018-03-11T07:11:29.936Z,69.90
2018-03-11T07:13:59.186Z,69.80
2018-03-11T07:16:28.610Z,69.30
2018-03-11T07:18:56.922Z,69.30
2018-03-11T07:21:25.279Z,69.20
2018-03-11T07:23:53.577Z,69.10
2018-03-11T07:26:21.851Z,68.90
2018-03-11T07:28:50.186Z,68.70
2018-03-11T07:31:18.554Z,68.60
2018-03-11T07:33:46.860Z,68.70
2018-03-11T07:36:15.156Z,68.50
2018-03-11T07:38:43.432Z,68.30
2018-03-11T07:41:12.777Z,68.00
2018-03-11T07:43:41.151Z,68.00
2018-03-11T07:46:11.074Z,67.70
2018-03-11T07:48:39.506Z,67.50
2018-03-11T07:51:08.852Z,67.40
2018-03-11T07:53:37.310Z,67.30
2018-03-11T07:56:05.611Z,67.50
2018-03-11T07:58:33.935Z,67.60
2018-03-11T08:01:03.285Z,67.40
2018-03-11T08:03:31.596Z,67.30
2018-03-11T08:05:59.904Z,67.10
2018-03-11T08:08:30.024Z,66.80
2018-03-11T08:10:58.527Z,66.80
2018-03-11T08:13:27.093Z,66.70
2018-03-11T08:15:56.426Z,66.00
2018-03-11T08:18:24.946Z,66.00
2018-03-11T08:20:53.266Z,65.60
2018-03-11T08:23:22.004Z,65.40
2018-03-11T08:25:50.457Z,65.00
2018-03-11T08:28:19.787Z,65.00
2018-03-11T08:30:48.157Z,65.10
2018-03-11T08:33:16.488Z,65.20
2018-03-11T08:35:44.960Z,64.80
2018-03-11T08:38:13.558Z,64.30
2018-03-11T08:40:42.125Z,64.10
2018-03-11T08:43:10.567Z,64.30
2018-03-11T08:45:38.902Z,64.60
2018-03-11T08:48:07.371Z,64.60
2018-03-11T08:50:38.336Z,64.40
2018-03-11T08:53:06.807Z,64.40
2018-03-11T08:55:35.214Z,64.00
2018-03-11T08:58:03.532Z,63.80
2018-03-11T09:00:31.836Z,63.80
2018-03-11T09:03:00.238Z,63.40
2018-03-11T09:05:28.639Z,62.80
2018-03-11T09:07:57.728Z,62.50
2018-03-11T09:10:26.193Z,62.60
2018-03-11T09:12:54.532Z,59.80
2018-03-11T09:15:22.892Z,56.70
2018-03-11T09:17:52.112Z,52.40
2018-03-11T09:20:20.466Z,52.30
2018-03-11T09:22:49.765Z,55.00
2018-03-11T09:25:19.016Z,55.90
2018-03-11T09:27:47.555Z,55.90
2018-03-11T09:30:15.833Z,56.90
2018-03-11T09:32:44.160Z,56.90
2018-03-11T09:35:12.563Z,57.40
2018-03-11T09:37:41.151Z,58.30
2018-03-11T09:40:10.393Z,58.90
2018-03-11T09:42:39.799Z,58.90
2018-03-11T09:45:08.362Z,58.70
2018-03-11T09:47:37.621Z,59.20
2018-03-11T09:50:05.969Z,59.20
2018-03-11T09:52:34.563Z,58.50
2018-03-11T09:55:03.078Z,59.60
2018-03-11T09:57:32.207Z,59.30
2018-03-11T10:00:00.543Z,59.20
2018-03-11T10:02:29.760Z,58.80
2018-03-11T10:04:58.855Z,58.50
2018-03-11T10:07:29.212Z,58.30
2018-03-11T10:09:57.582Z,58.20
2018-03-11T10:12:26.071Z,58.00
2018-03-11T10:14:54.504Z,57.50
2018-03-11T10:17:23.877Z,56.80
2018-03-11T10:19:52.251Z,56.80
2018-03-11T10:22:20.569Z,55.70
2018-03-11T10:24:49.770Z,55.30
2018-03-11T10:27:18.868Z,55.30
2018-03-11T10:29:49.206Z,55.40
2018-03-11T10:32:17.789Z,55.30
2018-03-11T10:34:46.319Z,55.50
2018-03-11T10:37:17.224Z,55.00
2018-03-11T10:39:45.669Z,55.00
2018-03-11T10:42:13.990Z,54.70
2018-03-11T10:44:42.313Z,54.20
2018-03-11T10:47:11.854Z,53.80
2018-03-11T10:49:40.189Z,53.70
2018-03-11T10:52:12.887Z,53.50
2018-03-11T10:54:41.229Z,53.10
2018-03-11T10:57:09.551Z,53.70
2018-03-11T10:59:39.633Z,53.80
2018-03-11T11:02:13.446Z,53.10
2018-03-11T11:04:42.859Z,52.40
2018-03-11T11:07:11.166Z,53.20
2018-03-11T11:09:39.823Z,54.40
2018-03-11T11:12:08.922Z,51.00
2018-03-11T11:14:37.516Z,51.00
2018-03-11T11:17:06.639Z,49.90
2018-03-11T11:19:35.088Z,49.80
2018-03-11T11:22:03.538Z,49.70
2018-03-11T11:24:31.833Z,50.40
2018-03-11T11:27:01.103Z,49.70
2018-03-11T11:29:29.383Z,49.70
2018-03-11T11:31:57.747Z,49.50
2018-03-11T11:34:27.966Z,50.00
2018-03-11T11:36:56.329Z,49.10
2018-03-11T11:39:24.678Z,49.30
2018-03-11T11:41:53.928Z,51.90
2018-03-11T11:44:22.864Z,51.90
2018-03-11T11:46:52.117Z,52.30
2018-03-11T11:49:20.464Z,52.30
2018-03-11T11:51:48.768Z,52.00
2018-03-11T11:54:17.231Z,52.40
2018-03-11T11:56:45.726Z,52.50
2018-03-11T11:59:14.258Z,52.90
2018-03-11T12:01:43.647Z,53.40
2018-03-11T12:04:12.159Z,53.40
2018-03-11T12:06:40.659Z,53.70
2018-03-11T12:09:09.127Z,53.70
2018-03-11T12:11:37.467Z,53.90
2018-03-11T12:14:05.958Z,54.00
2018-03-11T12:16:35.032Z,54.00
2018-03-11T12:19:03.441Z,53.90
2018-03-11T12:21:32.527Z,54.10
2018-03-11T12:24:02.868Z,54.10
2018-03-11T12:26:31.214Z,54.30
2018-03-11T12:28:59.587Z,54.00
2018-03-11T12:31:28.097Z,53.90
2018-03-11T12:33:57.318Z,53.80
2018-03-11T12:36:25.638Z,53.80
2018-03-11T12:38:54.011Z,53.40
2018-03-11T12:41:22.377Z,53.60
2018-03-11T12:43:50.760Z,53.60
2018-03-11T12:46:19.120Z,53.50
2018-03-11T12:48:47.658Z,52.90
2018-03-11T12:51:18.092Z,52.60
2018-03-11T12:53:47.429Z,52.90
2018-03-11T12:56:15.768Z,52.90
2018-03-11T12:58:44.202Z,52.50
2018-03-11T13:01:12.580Z,52.40
2018-03-11T13:03:41.119Z,51.30
2018-03-11T13:06:09.506Z,51.30
2018-03-11T13:08:37.842Z,50.70
2018-03-11T13:11:07.187Z,51.10
2018-03-11T13:13:35.563Z,51.10
2018-03-11T13:16:04.271Z,50.60
2018-03-11T13:18:32.795Z,49.60
2018-03-11T13:21:09.749Z,49.60
2018-03-11T13:23:38.898Z,49.60
2018-03-11T13:26:07.972Z,49.60
2018-03-11T13:28:50.138Z,49.00
2018-03-11T13:31:18.458Z,49.40
2018-03-11T13:34:14.787Z,48.10
2018-03-11T13:36:43.383Z,47.40
2018-03-11T13:39:29.500Z,47.80
2018-03-11T13:41:57.903Z,47.50
2018-03-11T13:44:26.433Z,47.30
2018-03-11T13:47:14.511Z,47.20
2018-03-11T13:49:43.068Z,47.40
2018-03-11T13:52:30.621Z,47.40
2018-03-11T13:54:59.247Z,47.70
2018-03-11T14:01:00.363Z,48.10
2018-03-11T14:03:29.651Z,50.60
2018-03-11T14:05:57.971Z,48.60
2018-03-11T14:08:26.378Z,47.80
2018-03-11T14:10:54.953Z,47.80
2018-03-11T14:13:24.252Z,47.90
2018-03-11T14:15:53.340Z,47.70
2018-03-11T14:18:22.600Z,48.10
2018-03-11T14:20:50.972Z,48.10
2018-03-11T14:23:21.069Z,48.10
2018-03-11T14:25:49.421Z,48.00
2018-03-11T14:28:18.702Z,48.30
2018-03-11T14:30:47.058Z,48.30
2018-03-11T14:33:16.238Z,48.70
2018-03-11T14:35:44.742Z,48.70
2018-03-11T14:38:13.164Z,48.60
2018-03-11T14:40:41.679Z,48.00
2018-03-11T14:43:10.259Z,48.00
2018-03-11T14:45:38.672Z,48.00
2018-03-11T14:48:07.022Z,47.80
2018-03-11T14:50:36.618Z,48.00
2018-03-11T14:53:05.051Z,48.10
2018-03-11T14:55:33.501Z,47.90
2018-03-11T14:58:01.802Z,48.00
2018-03-11T15:00:30.237Z,48.30
2018-03-11T15:02:58.667Z,48.00
2018-03-11T15:05:27.404Z,47.70
2018-03-11T15:07:55.968Z,47.80
2018-03-11T15:10:24.349Z,47.80
2018-03-11T15:12:53.878Z,48.00
2018-03-11T15:15:22.400Z,47.80
2018-03-11T15:17:51.554Z,47.00
2018-03-11T15:20:21.080Z,46.90
2018-03-11T15:22:49.969Z,47.30
2018-03-11T15:25:18.510Z,47.70
2018-03-11T15:27:47.174Z,47.60
2018-03-11T15:30:16.296Z,47.50
2018-03-11T15:32:44.627Z,47.50
2018-03-11T15:35:13.111Z,47.50
2018-03-11T15:37:41.495Z,47.70
2018-03-11T15:40:09.956Z,47.70
2018-03-11T15:42:38.514Z,48.10
2018-03-11T15:45:07.771Z,48.20
2018-03-11T15:47:37.315Z,48.20
2018-03-11T15:50:09.075Z,48.20
2018-03-11T15:52:37.388Z,47.80
2018-03-11T15:55:06.047Z,48.30
2018-03-11T15:57:34.600Z,47.90
2018-03-11T16:00:03.898Z,48.10
2018-03-11T16:02:33.766Z,48.10
2018-03-11T16:05:02.155Z,48.10
2018-03-11T16:07:30.707Z,47.90
2018-03-11T16:09:59.384Z,48.30
2018-03-11T16:12:27.717Z,48.10
2018-03-11T16:14:56.899Z,47.90
2018-03-11T16:17:25.348Z,47.90
2018-03-11T16:19:55.949Z,47.90
2018-03-11T16:22:24.465Z,47.90
2018-03-11T16:24:54.675Z,48.00
2018-03-11T16:27:24.180Z,47.90
2018-03-11T16:29:52.625Z,47.70
2018-03-11T16:32:21.708Z,48.30
2018-03-11T16:34:50.395Z,48.30
2018-03-11T16:37:19.635Z,48.10
2018-03-11T16:39:48.047Z,48.10
2018-03-11T16:42:16.546Z,48.30
2018-03-11T16:44:44.998Z,48.40
2018-03-11T16:47:13.607Z,48.70
2018-03-11T16:49:42.020Z,49.10
2018-03-11T16:52:10.800Z,49.20
2018-03-11T16:54:40.058Z,49.50
2018-03-11T16:57:08.474Z,49.50
2018-03-11T16:59:38.054Z,50.00
2018-03-11T17:02:06.479Z,50.00
2018-03-11T17:04:34.848Z,50.30
2018-03-11T17:07:04.322Z,50.30
2018-03-11T17:09:32.670Z,50.30
2018-03-11T17:12:01.023Z,50.50
2018-03-11T17:14:29.715Z,50.70
2018-03-11T17:16:58.190Z,51.00
2018-03-11T17:19:26.858Z,51.30
2018-03-11T17:21:55.255Z,51.50
2018-03-11T17:26:58.961Z,59.10
2018-03-11T17:29:27.449Z,59.10
2018-03-11T17:31:55.789Z,53.50
2018-03-11T17:34:24.255Z,50.30
2018-03-11T17:36:55.369Z,46.90
2018-03-11T17:39:24.552Z,47.00
2018-03-11T17:41:53.221Z,46.20
2018-03-11T17:44:21.688Z,43.60
2018-03-11T17:46:52.536Z,45.90
2018-03-11T17:49:22.009Z,47.20
2018-03-11T17:51:50.832Z,47.20
2018-03-11T17:54:19.461Z,48.20
2018-03-11T17:56:48.020Z,49.00
2018-03-11T17:59:16.596Z,49.80
2018-03-11T18:04:18.610Z,51.10
2018-03-11T18:06:47.313Z,52.00
2018-03-11T18:09:15.896Z,53.40
2018-03-11T18:11:45.975Z,54.50
2018-03-11T18:14:14.369Z,54.40
2018-03-11T18:16:42.840Z,54.50
2018-03-11T18:19:11.314Z,54.40
2018-03-11T18:21:40.016Z,55.00
2018-03-11T18:24:08.567Z,55.10
2018-03-11T18:26:36.930Z,54.70
2018-03-11T18:29:06.178Z,54.40
2018-03-11T18:31:34.550Z,54.40
2018-03-11T18:34:04.065Z,54.40
2018-03-11T18:36:32.605Z,54.40
2018-03-11T18:39:01.005Z,54.50
2018-03-11T18:41:29.372Z,54.40
2018-03-11T18:43:57.950Z,54.50
2018-03-11T18:46:30.395Z,55.20
2018-03-11T18:48:59.755Z,57.50
2018-03-11T18:51:28.233Z,57.50
2018-03-11T18:53:57.944Z,56.70
2018-03-11T18:56:26.407Z,56.10
2018-03-11T18:58:54.808Z,55.70
2018-03-11T19:01:23.106Z,55.50
2018-03-11T19:03:51.555Z,55.40
2018-03-11T19:06:20.055Z,55.60
2018-03-11T19:08:50.000Z,55.70
2018-03-11T19:11:19.310Z,57.30
2018-03-11T19:13:48.649Z,58.10
2018-03-11T19:16:17.035Z,58.10
2018-03-11T19:18:45.508Z,57.50
2018-03-11T19:21:13.966Z,56.50
2018-03-11T19:23:43.823Z,56.50
2018-03-11T19:26:14.616Z,56.20
2018-03-11T19:28:43.705Z,56.10
2018-03-11T19:31:12.224Z,55.60
2018-03-11T19:33:40.614Z,55.50
2018-03-11T19:36:09.070Z,55.40
2018-03-11T19:38:37.799Z,55.40
2018-03-11T19:41:06.115Z,55.30
2018-03-11T19:43:34.607Z,55.30
2018-03-11T19:46:03.070Z,55.40
2018-03-11T19:48:31.647Z,55.10
2018-03-11T19:51:01.094Z,55.90
2018-03-11T19:53:29.876Z,56.00
2018-03-11T19:55:58.595Z,56.10
2018-03-11T20:01:00.918Z,55.80
2018-03-11T20:03:30.200Z,55.70
2018-03-11T20:05:59.349Z,55.60
2018-03-11T20:08:27.744Z,55.60
2018-03-11T20:10:56.304Z,55.20
2018-03-11T20:13:24.682Z,55.70
2018-03-11T20:15:53.204Z,55.60
2018-03-11T20:18:21.762Z,55.70
2018-03-11T20:20:50.179Z,56.10
2018-03-11T20:23:19.423Z,58.40
2018-03-11T20:25:47.829Z,58.20
2018-03-11T20:28:16.330Z,57.50
2018-03-11T20:30:44.671Z,57.80
2018-03-11T20:33:13.357Z,58.10
2018-03-11T20:35:41.886Z,57.30
2018-03-11T20:38:11.027Z,56.10
2018-03-11T20:40:40.926Z,56.70
2018-03-11T20:43:10.940Z,58.90
2018-03-11T20:45:40.175Z,58.90
2018-03-11T20:48:08.594Z,59.30
2018-03-11T20:50:37.749Z,57.40
2018-03-11T20:53:06.193Z,57.40
2018-03-11T20:55:34.546Z,56.50
2018-03-11T20:58:02.930Z,56.40
2018-03-11T21:00:32.279Z,56.00
2018-03-11T21:03:00.963Z,56.00
2018-03-11T21:05:29.349Z,56.60
2018-03-11T21:07:57.661Z,57.00
2018-03-11T21:10:26.339Z,59.10
2018-03-11T21:12:54.679Z,60.10
2018-03-11T21:15:23.366Z,58.40
2018-03-11T21:17:51.688Z,59.40
2018-03-11T21:20:20.080Z,59.40
2018-03-11T21:22:49.500Z,59.30
2018-03-11T21:25:18.645Z,59.00
2018-03-11T21:27:46.932Z,59.20
2018-03-11T21:30:27.925Z,59.10
2018-03-11T21:32:56.289Z,58.90
2018-03-11T21:35:25.589Z,62.20
2018-03-11T21:37:54.834Z,62.20
2018-03-11T21:40:23.215Z,62.10
2018-03-11T21:42:51.541Z,62.90
2018-03-11T21:45:21.554Z,62.70
2018-03-11T21:47:49.898Z,62.70
2018-03-11T21:50:18.262Z,63.50
2018-03-11T21:52:46.897Z,61.60
2018-03-11T21:55:15.244Z,61.40
2018-03-11T21:57:43.608Z,60.80
2018-03-11T22:00:13.684Z,60.10
2018-03-11T22:02:43.455Z,61.00
2018-03-11T22:05:11.828Z,62.00
2018-03-11T22:07:40.185Z,61.10
2018-03-11T22:10:10.859Z,60.20
2018-03-11T22:12:39.215Z,65.90
2018-03-11T22:15:07.708Z,64.50
2018-03-11T22:17:35.976Z,65.00
2018-03-11T22:20:04.441Z,64.80
2018-03-11T22:22:32.927Z,64.20
2018-03-11T22:25:01.289Z,61.70
2018-03-11T22:27:29.755Z,60.70
2018-03-11T22:29:58.910Z,60.70
2018-03-11T22:32:27.233Z,60.70
2018-03-11T22:34:55.535Z,62.60
2018-03-11T22:37:23.885Z,64.10
2018-03-11T22:39:53.041Z,61.90
2018-03-11T22:42:21.557Z,61.90
2018-03-11T22:44:50.682Z,62.80
2018-03-11T22:47:19.069Z,63.10
2018-03-11T22:49:47.516Z,64.70
2018-03-11T22:52:16.780Z,62.80
2018-03-11T22:54:45.092Z,62.80
2018-03-11T22:57:14.255Z,64.70
2018-03-11T22:59:42.649Z,64.50
2018-03-11T23:02:10.990Z,63.10
2018-03-11T23:04:39.260Z,61.70
2018-03-11T23:07:07.766Z,60.90
2018-03-11T23:09:36.129Z,61.30
2018-03-11T23:12:05.539Z,61.60
2018-03-11T23:14:33.861Z,62.90
2018-03-11T23:17:02.210Z,60.50
2018-03-11T23:19:30.548Z,60.30
2018-03-11T23:21:58.861Z,59.80
2018-03-11T23:24:27.162Z,60.00
2018-03-11T23:26:56.286Z,59.50
2018-03-11T23:29:24.587Z,59.50
2018-03-11T23:31:52.951Z,59.70
2018-03-11T23:34:21.221Z,60.30
2018-03-11T23:36:49.439Z,60.30
2018-03-11T23:39:17.716Z,60.80
2018-03-11T23:41:47.656Z,61.10
2018-03-11T23:44:17.884Z,60.30
2018-03-11T23:46:46.937Z,59.40
2018-03-11T23:49:15.245Z,59.20
2018-03-11T23:51:44.320Z,58.40
2018-03-11T23:54:12.656Z,58.40
2018-03-11T23:56:40.950Z,62.10
2018-03-11T23:59:09.215Z,63.30
